createdAt,value
2023-01-29T00:01:49.123Z,17.57
2023-01-29T00:04:22.302Z,17.67
2023-01-29T00:06:55.514Z,19.15
2023-01-29T00:09:29.537Z,16.93
2023-01-29T00:14:34.630Z,16.02
2023-01-29T00:17:07.756Z,17.23
2023-01-29T00:19:40.585Z,16.45
2023-01-29T00:22:13.742Z,15.95
2023-01-29T00:24:46.694Z,16.95
2023-01-29T00:27:19.607Z,17.55
2023-01-29T00:30:12.001Z,17.80
2023-01-29T00:32:45.458Z,17.57
2023-01-29T00:35:18.647Z,17.20
2023-01-29T00:37:52.838Z,16.07
2023-01-29T00:40:26.467Z,14.95
2023-01-29T00:43:17.127Z,15.05
2023-01-29T00:45:50.555Z,15.83
2023-01-29T00:48:23.949Z,16.20
2023-01-29T00:50:56.903Z,16.67
2023-01-29T00:53:30.196Z,15.43
2023-01-29T00:56:03.256Z,16.27
2023-01-29T00:58:36.319Z,15.13
2023-01-29T01:01:09.348Z,16.45
2023-01-29T01:03:44.220Z,16.12
2023-01-29T01:06:17.302Z,16.23
2023-01-29T01:11:41.576Z,15.98
2023-01-29T01:14:15.080Z,16.20
2023-01-29T01:16:49.240Z,16.20
2023-01-29T01:21:54.084Z,16.37
2023-01-29T01:24:27.347Z,15.63
2023-01-29T01:27:00.947Z,15.68
2023-01-29T01:29:33.878Z,17.10
2023-01-29T01:32:07.191Z,16.20
2023-01-29T01:34:41.817Z,14.85
2023-01-29T01:37:14.572Z,15.40
2023-01-29T01:39:49.184Z,15.05
2023-01-29T01:45:04.024Z,15.20
2023-01-29T01:47:47.538Z,14.38
2023-01-29T01:50:28.125Z,15.23
2023-01-29T01:53:06.101Z,13.80
2023-01-29T01:55:52.113Z,14.78
2023-01-29T01:58:38.569Z,14.25
2023-01-29T02:01:13.016Z,14.68
2023-01-29T02:04:14.002Z,14.05
2023-01-29T02:07:05.021Z,15.93
2023-01-29T02:09:46.840Z,14.03
2023-01-29T02:12:21.711Z,14.83
2023-01-29T02:17:27.250Z,13.35
2023-01-29T02:20:30.442Z,13.10
2023-01-29T02:23:21.408Z,12.98
2023-01-29T02:26:36.259Z,13.35
2023-01-29T02:29:25.420Z,13.43
2023-01-29T02:32:25.589Z,13.05
2023-01-29T02:35:28.398Z,11.70
2023-01-29T02:38:36.551Z,12.75
2023-01-29T02:41:16.868Z,11.45
2023-01-29T02:44:00.610Z,12.95
2023-01-29T02:46:38.295Z,14.13
2023-01-29T02:49:24.471Z,13.43
2023-01-29T02:52:28.360Z,13.83
2023-01-29T02:55:19.612Z,15.63
2023-01-29T02:57:57.317Z,13.32
2023-01-29T03:00:36.948Z,12.53
2023-01-29T03:03:22.622Z,11.88
2023-01-29T03:06:32.580Z,12.35
2023-01-29T03:09:29.865Z,10.78
2023-01-29T03:12:22.859Z,12.88
2023-01-29T03:15:16.075Z,11.48
2023-01-29T03:18:16.258Z,12.98
2023-01-29T03:20:58.791Z,12.90
2023-01-29T03:23:52.865Z,13.53
2023-01-29T03:26:45.700Z,13.78
2023-01-29T03:29:37.035Z,12.68
2023-01-29T03:32:10.734Z,12.80
2023-01-29T03:34:52.415Z,14.05
2023-01-29T03:37:38.507Z,13.62
2023-01-29T03:40:14.392Z,13.68
2023-01-29T03:43:12.393Z,14.13
2023-01-29T03:46:05.162Z,14.85
2023-01-29T03:48:43.459Z,14.38
2023-01-29T03:51:26.813Z,13.30
2023-01-29T03:54:10.666Z,14.98
2023-01-29T03:57:15.574Z,14.98
2023-01-29T04:00:19.293Z,14.43
2023-01-29T04:03:22.143Z,14.05
2023-01-29T04:06:04.341Z,15.03
2023-01-29T04:08:43.268Z,15.70
2023-01-29T04:11:19.025Z,16.42
2023-01-29T04:13:52.804Z,16.12
2023-01-29T04:19:09.270Z,16.75
2023-01-29T04:21:44.351Z,17.15
2023-01-29T04:24:17.795Z,23.35
2023-01-29T04:27:26.217Z,16.05
2023-01-29T04:30:28.581Z,18.05
2023-01-29T04:33:25.545Z,19.00
2023-01-29T04:36:18.351Z,17.27
2023-01-29T04:39:14.484Z,18.12
2023-01-29T04:42:32.635Z,19.05
2023-01-29T04:45:13.201Z,19.62
2023-01-29T04:48:00.601Z,18.60
2023-01-29T04:50:46.658Z,20.82
2023-01-29T04:53:49.062Z,20.60
2023-01-29T04:56:38.904Z,19.32
2023-01-29T04:59:18.824Z,20.45
2023-01-29T05:01:52.476Z,20.20
2023-01-29T05:04:26.300Z,23.75
2023-01-29T05:07:02.261Z,21.70
2023-01-29T05:09:36.580Z,20.65
2023-01-29T05:12:11.269Z,20.43
2023-01-29T05:14:46.582Z,21.48
2023-01-29T05:17:21.563Z,21.37
2023-01-29T05:19:54.847Z,20.43
2023-01-29T05:22:28.120Z,21.87
2023-01-29T05:25:01.234Z,20.23
2023-01-29T05:27:54.378Z,20.40
2023-01-29T05:30:27.427Z,18.90
2023-01-29T05:33:00.628Z,21.03
2023-01-29T05:35:35.112Z,18.75
2023-01-29T05:38:08.587Z,20.05
2023-01-29T05:40:41.561Z,21.20
2023-01-29T05:43:23.452Z,19.65
2023-01-29T05:45:59.722Z,20.70
2023-01-29T05:48:33.140Z,22.30
2023-01-29T05:51:06.905Z,21.25
2023-01-29T05:53:40.570Z,23.32
2023-01-29T05:56:13.785Z,21.05
2023-01-29T05:58:46.684Z,20.17
2023-01-29T06:01:23.017Z,21.20
2023-01-29T06:03:56.247Z,21.87
2023-01-29T06:06:29.808Z,22.40
2023-01-29T06:09:02.764Z,24.52
2023-01-29T06:11:35.757Z,22.75
2023-01-29T06:14:09.329Z,25.08
2023-01-29T06:16:42.375Z,25.33
2023-01-29T06:19:15.331Z,25.65
2023-01-29T06:21:48.486Z,23.83
2023-01-29T06:24:22.290Z,25.20
2023-01-29T06:26:55.425Z,24.92
2023-01-29T06:29:28.348Z,25.23
2023-01-29T06:32:01.499Z,30.32
2023-01-29T06:34:38.392Z,25.45
2023-01-29T06:37:11.442Z,25.57
2023-01-29T06:39:44.688Z,27.73
2023-01-29T06:42:17.548Z,24.77
2023-01-29T06:44:50.563Z,23.73
2023-01-29T06:47:25.055Z,28.33
2023-01-29T06:52:30.092Z,27.50
2023-01-29T06:55:03.269Z,27.40
2023-01-29T06:57:36.817Z,26.90
2023-01-29T07:00:11.292Z,25.48
2023-01-29T07:02:44.564Z,28.12
2023-01-29T07:05:17.895Z,25.85
2023-01-29T07:10:24.043Z,25.95
2023-01-29T07:12:59.697Z,27.90
2023-01-29T07:15:33.155Z,25.90
2023-01-29T07:18:09.646Z,28.70
2023-01-29T07:20:43.861Z,28.92
2023-01-29T07:23:18.009Z,41.02
2023-01-29T07:25:51.080Z,30.25
2023-01-29T07:28:24.396Z,32.30
2023-01-29T07:31:03.433Z,49.88
2023-01-29T07:33:38.335Z,49.42
2023-01-29T07:36:13.548Z,45.55
2023-01-29T07:38:48.379Z,33.67
2023-01-29T07:41:21.794Z,43.30
2023-01-29T07:43:55.221Z,52.65
2023-01-29T07:46:28.313Z,45.15
2023-01-29T07:49:01.997Z,74.07
2023-01-29T07:51:34.928Z,81.97
2023-01-29T07:54:07.824Z,71.22
2023-01-29T07:56:41.275Z,50.95
2023-01-29T07:59:14.268Z,60.58
2023-01-29T08:01:47.195Z,61.92
2023-01-29T08:04:21.222Z,78.85
2023-01-29T08:06:55.144Z,56.50
2023-01-29T08:09:28.534Z,46.50
2023-01-29T08:12:02.244Z,37.00
2023-01-29T08:14:35.568Z,41.23
2023-01-29T08:17:08.617Z,39.80
2023-01-29T08:19:41.797Z,41.10
2023-01-29T08:22:16.441Z,57.08
2023-01-29T08:24:53.943Z,85.95
2023-01-29T08:27:24.029Z,82.78
2023-01-29T08:29:56.976Z,76.72
2023-01-29T08:32:30.612Z,67.92
2023-01-29T08:35:03.665Z,53.48
2023-01-29T08:37:37.571Z,47.35
2023-01-29T08:40:13.597Z,51.30
2023-01-29T08:42:46.908Z,63.60
2023-01-29T08:45:20.169Z,48.63
2023-01-29T08:47:53.177Z,57.88
2023-01-29T08:50:26.573Z,80.35
2023-01-29T08:53:04.278Z,77.80
2023-01-29T08:55:41.662Z,51.02
2023-01-29T08:58:14.733Z,45.38
2023-01-29T09:00:47.996Z,40.38
2023-01-29T09:03:21.161Z,40.60
2023-01-29T09:05:54.069Z,51.98
2023-01-29T09:08:28.383Z,87.00
2023-01-29T09:11:02.122Z,86.92
2023-01-29T09:13:36.463Z,62.03
2023-01-29T09:16:11.386Z,48.80
2023-01-29T09:18:44.328Z,48.17
2023-01-29T09:21:17.468Z,45.57
2023-01-29T09:23:50.313Z,48.15
2023-01-29T09:26:23.681Z,51.92
2023-01-29T09:28:56.961Z,67.80
2023-01-29T09:31:29.860Z,64.03
2023-01-29T09:34:03.744Z,78.35
2023-01-29T09:36:37.346Z,62.35
2023-01-29T09:39:10.364Z,55.15
2023-01-29T09:42:15.056Z,53.68
2023-01-29T09:45:19.626Z,44.27
2023-01-29T09:47:54.666Z,46.10
2023-01-29T09:50:35.519Z,41.95
2023-01-29T09:53:19.184Z,40.63
2023-01-29T09:55:56.594Z,38.57
2023-01-29T09:58:41.396Z,35.45
2023-01-29T10:01:40.525Z,33.67
2023-01-29T10:04:32.799Z,34.05
2023-01-29T10:07:45.522Z,30.52
2023-01-29T10:10:35.007Z,32.83
2023-01-29T10:13:25.186Z,37.65
2023-01-29T10:16:11.563Z,39.55
2023-01-29T10:18:51.872Z,36.65
2023-01-29T10:21:49.239Z,31.27
2023-01-29T10:24:40.968Z,29.60
2023-01-29T10:27:21.872Z,31.68
2023-01-29T10:29:55.985Z,33.13
2023-01-29T10:35:21.626Z,29.35
2023-01-29T10:38:00.313Z,28.17
2023-01-29T10:40:43.825Z,25.60
2023-01-29T10:43:32.368Z,23.02
2023-01-29T10:46:29.728Z,24.10
2023-01-29T10:49:23.731Z,23.22
2023-01-29T10:52:12.912Z,21.33
2023-01-29T10:55:06.149Z,23.35
2023-01-29T10:58:15.489Z,21.75
2023-01-29T11:00:48.375Z,23.60
2023-01-29T11:03:29.374Z,27.32
2023-01-29T11:06:33.980Z,55.23
2023-01-29T11:09:36.708Z,77.47
2023-01-29T11:12:18.993Z,69.20
2023-01-29T11:14:57.048Z,57.40
2023-01-29T11:17:30.800Z,56.75
2023-01-29T11:20:03.893Z,54.23
2023-01-29T11:22:37.303Z,55.47
2023-01-29T11:25:20.239Z,48.58
2023-01-29T11:27:57.822Z,49.05
2023-01-29T11:30:41.372Z,55.33
2023-01-29T11:33:23.933Z,55.85
2023-01-29T11:35:58.414Z,65.00
2023-01-29T11:38:31.968Z,41.80
2023-01-29T11:41:11.648Z,49.75
2023-01-29T11:43:45.230Z,45.58
2023-01-29T11:46:18.680Z,40.57
2023-01-29T11:49:02.424Z,40.85
2023-01-29T11:51:31.317Z,39.25
2023-01-29T11:54:06.196Z,41.68
2023-01-29T11:56:47.363Z,39.95
2023-01-29T11:59:46.512Z,38.90
2023-01-29T12:02:31.824Z,40.15
2023-01-29T12:05:21.256Z,50.20
2023-01-29T12:08:01.344Z,41.92
2023-01-29T12:10:41.208Z,40.23
2023-01-29T12:13:22.703Z,37.88
2023-01-29T12:16:21.183Z,43.70
2023-01-29T12:19:15.803Z,39.18
2023-01-29T12:22:03.734Z,49.83
2023-01-29T12:24:55.786Z,40.28
2023-01-29T12:27:40.598Z,35.48
2023-01-29T12:30:30.637Z,51.98
2023-01-29T12:33:18.109Z,51.75
2023-01-29T12:35:55.823Z,48.60
2023-01-29T12:38:28.840Z,49.35
2023-01-29T12:41:09.222Z,48.60
2023-01-29T12:43:48.695Z,46.75
2023-01-29T12:46:30.904Z,43.63
2023-01-29T12:49:08.532Z,53.40
2023-01-29T12:51:46.027Z,42.40
2023-01-29T12:54:23.213Z,40.90
2023-01-29T12:56:59.694Z,40.03
2023-01-29T12:59:45.687Z,44.15
2023-01-29T13:02:45.972Z,40.10
2023-01-29T13:05:31.808Z,42.67
2023-01-29T13:08:20.819Z,56.15
2023-01-29T13:10:56.320Z,73.72
2023-01-29T13:13:47.485Z,62.40
2023-01-29T13:16:25.734Z,46.63
2023-01-29T13:19:28.892Z,46.28
2023-01-29T13:22:05.763Z,48.13
2023-01-29T13:24:44.356Z,54.60
2023-01-29T13:27:32.355Z,66.20
2023-01-29T13:30:06.822Z,60.55
2023-01-29T13:35:19.647Z,57.43
2023-01-29T13:37:57.405Z,56.15
2023-01-29T13:40:33.018Z,56.65
2023-01-29T13:43:07.874Z,55.55
2023-01-29T13:45:48.811Z,42.20
2023-01-29T13:48:28.586Z,48.52
2023-01-29T13:51:06.217Z,48.70
2023-01-29T13:53:43.223Z,55.63
2023-01-29T13:56:38.347Z,54.83
2023-01-29T13:59:24.053Z,50.55
2023-01-29T14:02:05.656Z,45.03
2023-01-29T14:04:38.590Z,48.50
2023-01-29T14:07:46.571Z,51.50
2023-01-29T14:10:23.037Z,51.18
2023-01-29T14:13:06.618Z,54.58
2023-01-29T14:15:40.614Z,47.13
2023-01-29T14:18:22.498Z,44.33
2023-01-29T14:21:01.672Z,46.90
2023-01-29T14:23:48.319Z,42.75
2023-01-29T14:26:37.863Z,48.08
2023-01-29T14:29:34.820Z,44.77
2023-01-29T14:32:11.154Z,45.48
2023-01-29T14:34:53.549Z,51.75
2023-01-29T14:37:40.184Z,56.20
2023-01-29T14:40:23.259Z,64.77
2023-01-29T14:43:14.031Z,56.65
2023-01-29T14:45:48.540Z,58.80
2023-01-29T14:51:18.128Z,63.55
2023-01-29T14:54:22.372Z,66.90
2023-01-29T14:57:02.408Z,68.05
2023-01-29T14:59:42.451Z,71.00
2023-01-29T15:02:27.123Z,57.95
2023-01-29T15:05:01.701Z,57.35
2023-01-29T15:07:48.049Z,58.85
2023-01-29T15:10:56.765Z,60.73
2023-01-29T15:13:43.302Z,63.45
2023-01-29T15:16:45.281Z,63.45
2023-01-29T15:19:24.351Z,65.47
2023-01-29T15:22:18.808Z,69.60
2023-01-29T15:25:08.146Z,68.05
2023-01-29T15:27:45.933Z,66.62
2023-01-29T15:30:23.581Z,64.85
2023-01-29T15:32:56.621Z,64.77
2023-01-29T15:35:32.981Z,71.03
2023-01-29T15:38:21.362Z,78.07
2023-01-29T15:41:21.212Z,81.45
2023-01-29T15:43:59.164Z,83.30
2023-01-29T15:46:38.579Z,62.08
2023-01-29T15:49:17.085Z,68.28
2023-01-29T15:51:51.024Z,68.60
2023-01-29T15:54:23.991Z,78.80
2023-01-29T15:56:57.018Z,69.67
2023-01-29T15:59:34.920Z,68.25
2023-01-29T16:02:42.966Z,68.10
2023-01-29T16:05:22.359Z,69.97
2023-01-29T16:07:57.473Z,78.87
2023-01-29T16:10:33.916Z,62.35
2023-01-29T16:13:07.190Z,76.92
2023-01-29T16:15:41.449Z,64.13
2023-01-29T16:18:38.325Z,47.98
2023-01-29T16:21:28.712Z,39.42
2023-01-29T16:24:06.437Z,40.92
2023-01-29T16:26:43.157Z,36.35
2023-01-29T16:29:22.491Z,40.03
2023-01-29T16:31:58.717Z,39.53
2023-01-29T16:34:41.497Z,47.60
2023-01-29T16:37:27.238Z,46.83
2023-01-29T16:40:00.886Z,48.42
2023-01-29T16:42:35.907Z,48.83
2023-01-29T16:45:32.223Z,47.78
2023-01-29T16:48:30.784Z,47.00
2023-01-29T16:51:29.368Z,42.78
2023-01-29T16:54:19.315Z,41.30
2023-01-29T16:56:59.971Z,38.50
2023-01-29T16:59:39.013Z,37.65
2023-01-29T17:02:23.232Z,33.05
2023-01-29T17:05:00.002Z,29.77
2023-01-29T17:07:34.284Z,34.03
2023-01-29T17:10:08.915Z,32.30
2023-01-29T17:12:42.272Z,30.97
2023-01-29T17:15:37.543Z,31.80
2023-01-29T17:18:18.444Z,31.80
2023-01-29T17:20:55.594Z,31.40
2023-01-29T17:23:28.799Z,31.27
2023-01-29T17:26:02.923Z,32.98
2023-01-29T17:28:36.341Z,33.50
2023-01-29T17:31:09.498Z,39.03
2023-01-29T17:33:44.961Z,38.73
2023-01-29T17:36:19.806Z,41.77
2023-01-29T17:38:53.305Z,43.55
2023-01-29T17:41:30.798Z,43.60
2023-01-29T17:44:03.826Z,44.50
2023-01-29T17:46:36.897Z,39.75
2023-01-29T17:49:30.493Z,39.92
2023-01-29T17:52:03.584Z,39.48
2023-01-29T17:54:36.643Z,46.10
2023-01-29T17:57:11.573Z,44.73
2023-01-29T17:59:45.163Z,44.33
2023-01-29T18:02:29.586Z,47.80
2023-01-29T18:04:52.526Z,52.62
2023-01-29T18:07:25.574Z,52.20
2023-01-29T18:09:59.595Z,51.13
2023-01-29T18:12:32.828Z,52.17
2023-01-29T18:15:06.129Z,64.82
2023-01-29T18:17:39.883Z,68.35
2023-01-29T18:20:25.892Z,63.33
2023-01-29T18:23:01.119Z,54.38
2023-01-29T18:25:36.094Z,56.83
2023-01-29T18:28:11.112Z,53.75
2023-01-29T18:30:45.943Z,46.45
2023-01-29T18:33:19.554Z,53.50
2023-01-29T18:35:54.119Z,47.38
2023-01-29T18:38:27.744Z,34.78
2023-01-29T18:41:09.697Z,35.43
2023-01-29T18:43:44.429Z,34.80
2023-01-29T18:46:17.375Z,36.73
2023-01-29T18:48:51.311Z,33.90
2023-01-29T18:51:24.462Z,35.30
2023-01-29T18:53:57.428Z,31.77
2023-01-29T18:56:30.512Z,30.68
2023-01-29T18:59:05.591Z,29.27
2023-01-29T19:01:38.390Z,32.70
2023-01-29T19:04:11.506Z,36.00
2023-01-29T19:06:44.479Z,36.08
2023-01-29T19:09:17.555Z,34.63
2023-01-29T19:11:50.423Z,35.48
2023-01-29T19:14:23.980Z,33.35
2023-01-29T19:16:57.064Z,33.05
2023-01-29T19:19:30.743Z,33.42
2023-01-29T19:22:04.038Z,31.70
2023-01-29T19:24:39.340Z,31.30
2023-01-29T19:27:12.574Z,32.70
2023-01-29T19:29:45.515Z,36.45
2023-01-29T19:32:19.915Z,30.88
2023-01-29T19:34:53.311Z,37.25
2023-01-29T19:37:26.730Z,33.00
2023-01-29T19:42:32.244Z,31.90
2023-01-29T19:45:06.001Z,34.40
2023-01-29T19:50:15.068Z,33.75
2023-01-29T19:52:51.530Z,35.78
2023-01-29T19:55:23.145Z,35.45
2023-01-29T19:57:58.337Z,33.60
2023-01-29T20:00:31.412Z,31.97
2023-01-29T20:03:04.664Z,39.92
2023-01-29T20:05:38.454Z,34.92
2023-01-29T20:08:12.150Z,35.95
2023-01-29T20:10:49.872Z,38.33
2023-01-29T20:13:23.646Z,41.45
2023-01-29T20:15:57.583Z,33.53
2023-01-29T20:18:32.475Z,33.95
2023-01-29T20:21:17.901Z,30.97
2023-01-29T20:23:54.403Z,30.10
2023-01-29T20:26:27.564Z,32.20
2023-01-29T20:29:00.868Z,42.27
2023-01-29T20:31:34.414Z,43.98
2023-01-29T20:34:08.432Z,43.08
2023-01-29T20:39:15.523Z,38.23
2023-01-29T20:41:48.429Z,32.03
2023-01-29T20:44:21.555Z,29.80
2023-01-29T20:46:55.279Z,29.27
2023-01-29T20:49:28.900Z,33.80
2023-01-29T20:52:01.829Z,34.93
2023-01-29T20:54:35.095Z,42.70
2023-01-29T20:57:08.767Z,36.95
2023-01-29T20:59:42.074Z,37.78
2023-01-29T21:02:15.083Z,45.92
2023-01-29T21:04:48.765Z,46.42
2023-01-29T21:07:22.292Z,41.95
2023-01-29T21:09:55.494Z,29.87
2023-01-29T21:12:28.561Z,32.43
2023-01-29T21:15:02.943Z,32.33
2023-01-29T21:17:36.206Z,28.83
2023-01-29T21:20:11.419Z,27.98
2023-01-29T21:22:45.724Z,27.93
2023-01-29T21:25:20.238Z,28.32
2023-01-29T21:27:53.537Z,30.30
2023-01-29T21:30:27.302Z,30.20
2023-01-29T21:33:00.440Z,29.20
2023-01-29T21:35:34.031Z,30.48
2023-01-29T21:40:39.935Z,26.85
2023-01-29T21:43:12.919Z,28.23
2023-01-29T21:45:47.419Z,25.50
2023-01-29T21:48:20.428Z,27.80
2023-01-29T21:50:54.063Z,26.07
2023-01-29T21:53:26.995Z,28.65
2023-01-29T21:56:07.591Z,27.75
2023-01-29T21:58:40.508Z,25.35
2023-01-29T22:01:36.702Z,24.70
2023-01-29T22:03:48.642Z,26.55
2023-01-29T22:06:21.631Z,25.02
2023-01-29T22:08:55.124Z,22.13
2023-01-29T22:11:28.670Z,23.00
2023-01-29T22:14:02.331Z,23.85
2023-01-29T22:19:09.003Z,23.32
2023-01-29T22:21:42.363Z,26.40
2023-01-29T22:24:15.669Z,25.50
2023-01-29T22:26:49.637Z,23.65
2023-01-29T22:29:22.936Z,24.30
2023-01-29T22:31:56.884Z,27.33
2023-01-29T22:34:29.860Z,26.75
2023-01-29T22:37:03.571Z,27.15
2023-01-29T22:39:36.481Z,28.20
2023-01-29T22:42:09.898Z,30.10
2023-01-29T22:44:43.005Z,31.60
2023-01-29T22:47:17.648Z,29.50
2023-01-29T22:49:52.188Z,30.40
2023-01-29T22:52:26.951Z,30.43
2023-01-29T22:54:59.870Z,27.02
2023-01-29T22:57:33.377Z,28.35
2023-01-29T23:00:10.158Z,27.32
2023-01-29T23:02:43.196Z,26.70
2023-01-29T23:05:16.112Z,27.48
2023-01-29T23:07:49.084Z,23.35
2023-01-29T23:10:22.011Z,25.60
2023-01-29T23:12:54.920Z,23.25
2023-01-29T23:15:27.731Z,23.92
2023-01-29T23:18:00.880Z,25.45
2023-01-29T23:20:34.159Z,23.30
2023-01-29T23:23:07.148Z,19.77
2023-01-29T23:25:58.559Z,18.20
2023-01-29T23:28:31.654Z,18.25
2023-01-29T23:31:04.999Z,21.80
2023-01-29T23:33:38.136Z,21.85
2023-01-29T23:36:11.421Z,23.70
2023-01-29T23:38:44.348Z,24.67
2023-01-29T23:41:17.273Z,23.05
2023-01-29T23:43:50.975Z,23.55
2023-01-29T23:46:24.058Z,26.07
2023-01-29T23:48:56.990Z,24.10
2023-01-29T23:51:30.824Z,24.52
2023-01-29T23:54:04.033Z,23.02
2023-01-29T23:56:36.979Z,22.98
2023-01-29T23:59:10.571Z,22.48
